Front Runner — 3FRP5 — position and weather

sailwx.info

Track history (hours):
 
Tides and Currents Weather Stations Pressure Air Temp Water Temp Dewpoint Dewpoint Depression Visibility Wind Speed Wind Dir Waves Ship Positions

Front Runner

Last reported at 2014-Oct-08 20:33 UTC. Time now 2014-Oct-22 21:39 UTC.
Position N 29°03' E 032°47'.
Warning: this ship's position is 14 days out of date.

Length 190 m; draft 12.7 m.

Type: Cargo ship. MMSI: 357941000.

Date/timePositionNaut miles runAvg speedWind from/ knotsBaromVisibWave heightAir tempDewpointWater temp
2014-Oct-08 20:33N 29°03' E 032°47'1111.2
2014-Oct-08 19:33N 29°13' E 032°42'99 5.7
2014-Oct-08 02:19N 30°50' E 032°19'8 8.6
2014-Oct-08 01:20N 30°59' E 032°19'24 6.3
2014-Oct-07 21:29N 31°23' E 032°19'0 0.1
2014-Oct-07 20:33N 31°23' E 032°19'0 0.0
2014-Oct-07 19:33N 31°23' E 032°19'0 0.0
2014-Oct-07 18:33N 31°23' E 032°19'0 0.0
2014-Oct-07 17:33N 31°23' E 032°19'1 0.8
2014-Oct-07 16:33N 31°23' E 032°18'9 8.7
2014-Oct-07 15:33N 31°31' E 032°13'1410.4
2014-Oct-07 14:11N 31°41' E 032°01'14511.3
2014-Oct-07 01:20N 33°25' E 030°02'912.1
2014-Oct-07 00:33N 33°32' E 029°55'1212.1
2014-Oct-06 23:33N 33°41' E 029°45'1212.0
2014-Oct-06 22:34N 33°50' E 029°36'1212.4
2014-Oct-06 21:33N 33°60' E 029°26'1212.2
2014-Oct-06 20:33N 34°09' E 029°16'10711.9
2014-Oct-06 11:32N 35°30' E 027°51'1211.7
2014-Oct-06 10:31N 35°38' E 027°41'2311.7
2014-Oct-06 08:33N 35°57' E 027°23'1211.6
2014-Oct-06 07:29N 36°06' E 027°13'1211.7
2014-Oct-06 06:29N 36°14' E 027°03'2311.4
2014-Oct-06 04:31N 36°32' E 026°46'1111.3
2014-Oct-06 03:31N 36°43' E 026°42'1311.6
2014-Oct-06 02:22N 36°56' E 026°38'910.8
2014-Oct-06 01:32N 37°04' E 026°33'1111.1
2014-Oct-06 00:33N 37°10' E 026°23'1110.9
2014-Oct-05 23:33N 37°17' E 026°11'1110.8
2014-Oct-05 22:33N 37°23' E 026°00'1111.0
2014-Oct-05 21:33N 37°29' E 025°49'1110.8
2014-Oct-05 20:31N 37°41' E 025°47'1111.3
2014-Oct-05 19:33N 37°51' E 025°46'1311.0
2014-Oct-05 18:24N 38°04' E 025°45'2010.7
2014-Oct-05 16:30N 38°24' E 025°45'  
2014-Oct-01 07:05N 46°34' E 031°02'2 0.1
2014-Sep-30 07:04N 46°34' E 031°05'0 0.0
2014-Sep-30 06:31N 46°34' E 031°05'0 0.0
2014-Sep-30 04:28N 46°34' E 031°05'0 0.0
2014-Sep-30 03:28N 46°34' E 031°05'0 0.0
2014-Sep-30 02:28N 46°34' E 031°05'0 0.0
2014-Sep-30 01:31N 46°34' E 031°05'0 0.0
2014-Sep-30 00:31N 46°34' E 031°05'0 0.0
2014-Sep-29 23:31N 46°34' E 031°05'0 0.0
2014-Sep-29 22:31N 46°34' E 031°05'0 0.0
2014-Sep-29 21:28N 46°34' E 031°05'0 0.0
2014-Sep-29 20:25N 46°34' E 031°05'0 0.0
2014-Sep-29 03:04N 46°34' E 031°05'  
Track history (hours):
 
Tides and Currents Weather Stations Pressure Air Temp Water Temp Dewpoint Dewpoint Depression Visibility Wind Speed Wind Dir Waves Ship Positions

Front Runner

Last reported at 2014-Oct-08 20:33 UTC. Time now 2014-Oct-22 21:39 UTC.
Position N 29°03' E 032°47'.
Warning: this ship's position is 14 days out of date.

Length 190 m; draft 12.7 m.

Type: Cargo ship. MMSI: 357941000.

Date/timePositionNaut miles runAvg speedWind from/ knotsBaromVisibWave heightAir tempDewpointWater temp
2014-Oct-08 20:33N 29°03' E 032°47'1111.2
2014-Oct-08 19:33N 29°13' E 032°42'99 5.7
2014-Oct-08 02:19N 30°50' E 032°19'8 8.6
2014-Oct-08 01:20N 30°59' E 032°19'24 6.3
2014-Oct-07 21:29N 31°23' E 032°19'0 0.1
2014-Oct-07 20:33N 31°23' E 032°19'0 0.0
2014-Oct-07 19:33N 31°23' E 032°19'0 0.0
2014-Oct-07 18:33N 31°23' E 032°19'0 0.0
2014-Oct-07 17:33N 31°23' E 032°19'1 0.8
2014-Oct-07 16:33N 31°23' E 032°18'9 8.7
2014-Oct-07 15:33N 31°31' E 032°13'1410.4
2014-Oct-07 14:11N 31°41' E 032°01'14511.3
2014-Oct-07 01:20N 33°25' E 030°02'912.1
2014-Oct-07 00:33N 33°32' E 029°55'1212.1
2014-Oct-06 23:33N 33°41' E 029°45'1212.0
2014-Oct-06 22:34N 33°50' E 029°36'1212.4
2014-Oct-06 21:33N 33°60' E 029°26'1212.2
2014-Oct-06 20:33N 34°09' E 029°16'10711.9
2014-Oct-06 11:32N 35°30' E 027°51'1211.7
2014-Oct-06 10:31N 35°38' E 027°41'2311.7
2014-Oct-06 08:33N 35°57' E 027°23'1211.6
2014-Oct-06 07:29N 36°06' E 027°13'1211.7
2014-Oct-06 06:29N 36°14' E 027°03'2311.4
2014-Oct-06 04:31N 36°32' E 026°46'1111.3
2014-Oct-06 03:31N 36°43' E 026°42'1311.6
2014-Oct-06 02:22N 36°56' E 026°38'910.8
2014-Oct-06 01:32N 37°04' E 026°33'1111.1
2014-Oct-06 00:33N 37°10' E 026°23'1110.9
2014-Oct-05 23:33N 37°17' E 026°11'1110.8
2014-Oct-05 22:33N 37°23' E 026°00'1111.0
2014-Oct-05 21:33N 37°29' E 025°49'1110.8
2014-Oct-05 20:31N 37°41' E 025°47'1111.3
2014-Oct-05 19:33N 37°51' E 025°46'1311.0
2014-Oct-05 18:24N 38°04' E 025°45'2010.7
2014-Oct-05 16:30N 38°24' E 025°45'  
2014-Oct-01 07:05N 46°34' E 031°02'2 0.1
2014-Sep-30 07:04N 46°34' E 031°05'0 0.0
2014-Sep-30 06:31N 46°34' E 031°05'0 0.0
2014-Sep-30 04:28N 46°34' E 031°05'0 0.0
2014-Sep-30 03:28N 46°34' E 031°05'0 0.0
2014-Sep-30 02:28N 46°34' E 031°05'0 0.0
2014-Sep-30 01:31N 46°34' E 031°05'0 0.0
2014-Sep-30 00:31N 46°34' E 031°05'0 0.0
2014-Sep-29 23:31N 46°34' E 031°05'0 0.0
2014-Sep-29 22:31N 46°34' E 031°05'0 0.0
2014-Sep-29 21:28N 46°34' E 031°05'0 0.0
2014-Sep-29 20:25N 46°34' E 031°05'0 0.0
2014-Sep-29 03:04N 46°34' E 031°05'  

Dump ship's entire track history